Time;durP1;ratioP1;P1;durP2;ratioP2;P2;SDS_P1;SDS_P2;PMS_P1;PMS_P2;Temp;Humidity;BMP_temperature;BMP_pressure;BME280_temperature;BME280_humidity;BME280_pressure;Samples;Min_cycle;Max_cycle;Signal;HPM_P1;HPM_P2
2021/03/19 00:02:57;;;;;;;7.17;6.47;;;6.00;92.40;;;;;;10445461;28;20786;-75
2021/03/19 00:07:59;;;;;;;7.27;6.40;;;5.90;92.80;;;;;;10450615;28;20267;-76
2021/03/19 00:13:03;;;;;;;7.27;6.67;;;5.80;93.10;;;;;;10450336;28;20221;-76
2021/03/19 00:18:07;;;;;;;8.47;6.63;;;5.80;93.20;;;;;;10449995;28;20216;-76
2021/03/19 00:23:10;;;;;;;7.43;6.83;;;5.70;93.40;;;;;;10448366;28;20220;-76
2021/03/19 00:28:14;;;;;;;8.00;7.20;;;5.70;93.80;;;;;;10449974;28;20232;-75
2021/03/19 00:33:16;;;;;;;8.20;7.40;;;5.70;93.70;;;;;;10449875;28;20228;-75
2021/03/19 00:38:19;;;;;;;8.03;7.33;;;5.60;94.20;;;;;;10450943;28;20199;-76
2021/03/19 00:43:22;;;;;;;7.13;6.50;;;5.60;94.40;;;;;;10450594;28;20680;-76
2021/03/19 00:48:23;;;;;;;7.50;6.80;;;5.60;94.70;;;;;;10450475;28;20197;-76
2021/03/19 00:53:26;;;;;;;8.00;7.30;;;5.60;94.80;;;;;;10432496;28;20228;-76
2021/03/19 00:58:28;;;;;;;8.70;7.83;;;5.50;94.80;;;;;;10452384;28;20247;-76
2021/03/19 01:03:30;;;;;;;8.17;7.03;;;5.50;95.30;;;;;;10449943;28;20686;-76
2021/03/19 01:08:32;;;;;;;7.80;7.10;;;5.50;95.50;;;;;;10452228;28;20583;-76
2021/03/19 01:13:34;;;;;;;8.50;7.80;;;5.40;95.10;;;;;;10451792;28;20267;-76
2021/03/19 01:18:36;;;;;;;8.93;8.13;;;5.20;95.20;;;;;;10450573;28;20201;-76
2021/03/19 01:23:38;;;;;;;9.30;8.50;;;5.10;95.90;;;;;;10451789;28;20217;-76
2021/03/19 01:28:40;;;;;;;8.87;8.07;;;4.90;96.10;;;;;;10420610;28;20229;-76
2021/03/19 01:33:42;;;;;;;9.43;8.63;;;4.80;96.10;;;;;;10451529;28;20560;-76
2021/03/19 01:38:45;;;;;;;9.40;8.60;;;4.70;96.70;;;;;;10450999;28;20208;-76
2021/03/19 01:43:47;;;;;;;11.73;9.37;;;4.60;97.40;;;;;;10450274;28;20217;-75
2021/03/19 01:49:27;;;;;;;10.00;9.10;;;4.50;97.00;;;;;;10450333;28;20213;-76
2021/03/19 01:55:06;;;;;;;9.10;8.20;;;4.50;96.90;;;;;;10449933;28;20216;-75
2021/03/19 02:00:45;;;;;;;8.77;7.97;;;4.40;96.80;;;;;;10448008;28;20681;-76
2021/03/19 02:06:24;;;;;;;9.33;8.30;;;4.30;96.80;;;;;;10448738;28;21011;-75
2021/03/19 02:12:03;;;;;;;8.80;7.90;;;4.20;97.20;;;;;;10450782;28;20283;-75
2021/03/19 02:17:42;;;;;;;11.37;9.50;;;4.10;97.30;;;;;;10457111;28;20254;-76
2021/03/19 02:23:21;;;;;;;11.13;10.03;;;4.00;97.30;;;;;;10538544;22;20230;-77
2021/03/19 02:29:02;;;;;;;10.17;9.27;;;4.00;97.50;;;;;;10544476;28;20195;-76
2021/03/19 02:34:04;;;;;;;11.07;10.07;;;4.00;97.50;;;;;;10543773;28;20683;-78
2021/03/19 02:39:06;;;;;;;12.10;11.00;;;4.00;98.20;;;;;;10542660;28;20633;-77
2021/03/19 02:44:09;;;;;;;11.57;10.37;;;4.20;98.70;;;;;;10543583;28;20208;-77
2021/03/19 02:49:12;;;;;;;11.30;10.30;;;4.30;98.20;;;;;;10542421;28;20231;-77
2021/03/19 02:54:14;;;;;;;11.20;10.20;;;4.50;97.80;;;;;;10526123;28;20224;-77
2021/03/19 02:59:17;;;;;;;11.23;10.20;;;4.50;97.60;;;;;;10542360;28;20204;-78
2021/03/19 03:04:20;;;;;;;11.30;10.20;;;4.60;97.20;;;;;;10523633;28;20212;-77
2021/03/19 03:09:25;;;;;;;9.90;8.87;;;4.60;97.10;;;;;;10540794;28;20196;-77
2021/03/19 03:14:29;;;;;;;11.73;10.53;;;4.60;97.10;;;;;;10540597;28;20243;-77
2021/03/19 03:19:32;;;;;;;10.53;9.53;;;4.60;97.30;;;;;;10541287;28;20276;-77
2021/03/19 03:24:33;;;;;;;11.10;10.10;;;4.60;97.30;;;;;;10540359;28;20187;-77
2021/03/19 03:29:36;;;;;;;12.47;11.27;;;4.70;97.30;;;;;;10540313;28;20219;-77
2021/03/19 03:34:38;;;;;;;12.20;11.20;;;4.70;97.70;;;;;;10540249;28;20219;-77
2021/03/19 03:39:40;;;;;;;11.87;9.80;;;4.70;97.30;;;;;;10542553;28;20215;-77
2021/03/19 03:44:42;;;;;;;11.40;10.30;;;4.70;97.10;;;;;;10540146;28;20629;-77
2021/03/19 03:49:44;;;;;;;11.83;10.83;;;4.70;97.00;;;;;;10541008;28;20196;-78
2021/03/19 03:54:46;;;;;;;11.87;10.80;;;4.80;96.70;;;;;;10540152;28;20220;-77
2021/03/19 03:59:47;;;;;;;10.57;9.57;;;4.80;97.10;;;;;;10540729;28;20216;-77
2021/03/19 04:04:50;;;;;;;12.20;11.10;;;4.80;96.70;;;;;;10535563;28;20564;-77
2021/03/19 04:09:52;;;;;;;12.50;11.27;;;4.70;96.90;;;;;;10539452;28;20616;-77
2021/03/19 04:14:54;;;;;;;11.70;10.60;;;4.70;97.10;;;;;;10537759;28;20710;-77
2021/03/19 04:19:57;;;;;;;13.40;12.00;;;4.70;97.70;;;;;;10538611;28;20569;-77
2021/03/19 04:24:58;;;;;;;14.07;12.67;;;4.70;97.40;;;;;;10539150;28;20533;-78
2021/03/19 04:30:00;;;;;;;12.80;11.50;;;4.60;97.30;;;;;;10548033;28;20223;-77
2021/03/19 04:35:03;;;;;;;14.07;11.87;;;4.60;96.90;;;;;;10543658;28;20265;-79
2021/03/19 04:40:07;;;;;;;14.53;13.03;;;4.50;97.30;;;;;;10537911;28;20217;-78
2021/03/19 04:45:11;;;;;;;13.23;11.93;;;4.50;97.30;;;;;;10544950;28;20268;-79
2021/03/19 04:50:15;;;;;;;14.93;12.57;;;4.50;97.20;;;;;;10542416;28;20261;-79
2021/03/19 04:55:18;;;;;;;13.87;12.50;;;4.50;97.70;;;;;;10525987;28;20227;-78
2021/03/19 05:00:22;;;;;;;13.53;12.20;;;4.50;97.40;;;;;;10540927;28;20289;-78
2021/03/19 05:05:27;;;;;;;14.97;13.47;;;4.50;97.60;;;;;;10513389;28;20271;-77
2021/03/19 05:10:32;;;;;;;13.97;12.67;;;4.60;97.40;;;;;;10540034;28;20306;-77
2021/03/19 05:15:34;;;;;;;14.27;12.87;;;4.50;97.50;;;;;;10541445;28;20621;-78
2021/03/19 05:20:37;;;;;;;13.10;11.90;;;4.50;97.50;;;;;;10542580;28;20295;-77
2021/03/19 05:25:38;;;;;;;15.80;14.30;;;4.50;97.80;;;;;;10542344;28;20660;-77
2021/03/19 05:30:40;;;;;;;14.23;12.93;;;4.50;97.80;;;;;;10524956;28;20219;-77
2021/03/19 05:35:42;;;;;;;14.53;13.23;;;4.50;97.70;;;;;;10544635;28;20223;-78
2021/03/19 05:40:46;;;;;;;14.77;13.37;;;4.50;97.70;;;;;;10539149;28;20224;-78
2021/03/19 05:45:51;;;;;;;19.80;15.97;;;4.50;97.60;;;;;;10538375;28;20195;-78
2021/03/19 05:50:55;;;;;;;28.10;20.87;;;4.50;97.70;;;;;;10546382;28;20241;-78
2021/03/19 05:55:57;;;;;;;18.50;16.13;;;4.50;97.90;;;;;;10518059;28;20299;-77
2021/03/19 06:00:59;;;;;;;15.87;13.43;;;4.60;98.70;;;;;;10532820;28;20240;-78
2021/03/19 06:06:04;;;;;;;14.97;13.37;;;4.60;98.20;;;;;;10537677;28;20211;-79
2021/03/19 06:11:19;;;;;;;13.23;12.03;;;4.70;98.30;;;;;;10540673;28;20698;-78
2021/03/19 06:16:41;;;;;;;15.17;13.70;;;4.90;98.00;;;;;;10533105;28;20211;-78
2021/03/19 06:21:43;;;;;;;13.93;12.63;;;5.00;98.20;;;;;;10541770;28;20222;-78
2021/03/19 06:26:45;;;;;;;16.90;15.20;;;5.10;98.40;;;;;;10529067;28;20574;-78
2021/03/19 06:32:12;;;;;;;13.33;11.73;;;5.20;98.40;;;;;;10539625;28;20714;-77
2021/03/19 06:37:24;;;;;;;14.37;13.07;;;5.20;98.30;;;;;;10547558;28;20196;-78
2021/03/19 06:42:33;;;;;;;16.63;15.07;;;5.20;97.80;;;;;;10528709;28;20208;-78
2021/03/19 06:47:41;;;;;;;18.00;16.20;;;5.30;98.10;;;;;;10540399;28;20192;-78
2021/03/19 06:52:44;;;;;;;16.33;14.57;;;5.30;98.80;;;;;;10545933;28;20215;-77
2021/03/19 06:57:48;;;;;;;20.47;18.37;;;5.20;98.90;;;;;;10539932;28;20215;-78
2021/03/19 07:02:59;;;;;;;20.47;18.47;;;5.20;99.20;;;;;;10533987;28;20208;-77
2021/03/19 07:08:17;;;;;;;19.20;17.37;;;5.20;99.60;;;;;;10523252;28;20288;-78
2021/03/19 07:13:41;;;;;;;21.00;17.67;;;5.20;99.90;;;;;;10520486;28;20603;-78
2021/03/19 07:19:14;;;;;;;19.30;17.27;;;5.20;99.90;;;;;;10521072;28;20193;-77
2021/03/19 07:24:25;;;;;;;19.50;17.60;;;5.20;99.90;;;;;;10528949;28;20219;-78
2021/03/19 07:29:50;;;;;;;19.77;17.67;;;5.20;99.90;;;;;;10530103;28;20741;-77
2021/03/19 07:34:59;;;;;;;20.40;18.37;;;5.20;99.90;;;;;;10539584;28;20215;-78
2021/03/19 07:40:20;;;;;;;19.60;17.60;;;5.20;99.90;;;;;;10530270;28;20717;-77
2021/03/19 07:45:26;;;;;;;21.27;19.03;;;5.30;99.90;;;;;;10531855;28;20200;-78
2021/03/19 07:50:39;;;;;;;21.83;19.10;;;5.30;99.90;;;;;;10538184;28;20245;-77
2021/03/19 07:55:51;;;;;;;19.87;18.03;;;5.40;99.90;;;;;;10552031;28;20223;-78
2021/03/19 08:01:01;;;;;;;18.23;16.27;;;5.50;99.90;;;;;;10551243;28;20587;-77
2021/03/19 08:06:11;;;;;;;18.40;16.50;;;5.50;99.90;;;;;;10536391;28;20219;-77
2021/03/19 08:11:21;;;;;;;17.70;15.80;;;5.50;99.90;;;;;;10553476;28;20698;-77
2021/03/19 08:16:30;;;;;;;18.87;16.87;;;5.60;99.90;;;;;;10545172;28;20726;-77
2021/03/19 08:21:40;;;;;;;19.37;17.37;;;5.60;99.90;;;;;;10551739;22;20674;-78
2021/03/19 08:26:56;;;;;;;18.27;16.47;;;5.60;99.90;;;;;;10545099;28;20199;-78
2021/03/19 08:32:05;;;;;;;17.23;15.47;;;5.60;99.90;;;;;;10537221;28;20215;-78
2021/03/19 08:37:33;;;;;;;18.60;16.70;;;5.60;99.90;;;;;;10514975;28;20219;-78
2021/03/19 08:42:39;;;;;;;17.33;15.57;;;5.60;99.90;;;;;;10504672;28;20261;-78
2021/03/19 08:47:44;;;;;;;17.43;15.63;;;5.60;99.90;;;;;;10492352;28;20204;-78
2021/03/19 08:53:07;;;;;;;17.60;15.80;;;5.70;99.90;;;;;;10481925;28;20212;-78
2021/03/19 08:58:36;;;;;;;14.43;13.00;;;5.70;99.90;;;;;;10483461;28;20287;-78
2021/03/19 09:03:55;;;;;;;14.47;12.97;;;5.70;99.90;;;;;;10487670;28;20614;-78
2021/03/19 09:09:29;;;;;;;16.70;13.83;;;5.70;99.90;;;;;;10487525;28;20656;-78
2021/03/19 09:14:38;;;;;;;15.80;13.40;;;5.70;99.90;;;;;;10487630;28;20677;-78
2021/03/19 09:20:01;;;;;;;16.20;14.53;;;5.70;99.90;;;;;;10503047;28;20667;-77
2021/03/19 09:25:23;;;;;;;18.70;16.90;;;5.70;99.90;;;;;;10482938;28;20208;-77
2021/03/19 09:30:33;;;;;;;17.30;15.50;;;5.70;99.90;;;;;;10481881;28;20692;-77
2021/03/19 09:35:39;;;;;;;16.17;14.57;;;5.70;99.90;;;;;;10480451;28;20234;-77
2021/03/19 09:40:51;;;;;;;16.03;14.40;;;5.90;99.90;;;;;;10483950;28;20405;-77
2021/03/19 09:46:04;;;;;;;14.93;13.43;;;6.00;99.90;;;;;;10506411;28;20200;-77
2021/03/19 09:51:29;;;;;;;14.27;12.90;;;6.10;99.90;;;;;;10505251;28;20223;-77
2021/03/19 09:56:31;;;;;;;14.90;13.43;;;6.30;99.90;;;;;;10496128;28;20234;-77
2021/03/19 10:01:41;;;;;;;15.20;13.80;;;6.50;99.90;;;;;;10505697;28;20317;-77
2021/03/19 10:06:45;;;;;;;15.77;14.23;;;6.70;99.40;;;;;;10485630;28;20204;-77
2021/03/19 10:11:55;;;;;;;10.77;9.63;;;6.90;99.00;;;;;;10483298;28;20252;-75
2021/03/19 10:17:21;;;;;;;11.40;10.40;;;7.30;97.30;;;;;;10482293;28;20291;-75
2021/03/19 10:22:36;;;;;;;10.53;9.63;;;7.60;96.40;;;;;;10467425;28;20274;-75
2021/03/19 10:27:57;;;;;;;9.70;8.90;;;7.70;96.80;;;;;;10483025;28;20741;-76
2021/03/19 10:33:05;;;;;;;9.30;8.50;;;7.80;95.50;;;;;;10480872;28;20746;-77
2021/03/19 10:38:16;;;;;;;9.50;8.70;;;7.70;95.30;;;;;;10489305;28;20204;-78
2021/03/19 10:43:20;;;;;;;9.60;8.80;;;7.50;95.30;;;;;;10488383;28;20594;-78
2021/03/19 10:48:30;;;;;;;13.67;12.40;;;7.00;96.40;;;;;;10501545;28;20200;-78
2021/03/19 10:53:49;;;;;;;13.53;12.10;;;6.70;98.40;;;;;;10500304;28;20239;-77
2021/03/19 10:58:54;;;;;;;13.33;12.03;;;6.50;99.30;;;;;;10500951;28;20276;-78
2021/03/19 11:03:59;;;;;;;12.70;11.50;;;6.50;99.90;;;;;;10491117;28;20727;-78
2021/03/19 11:09:14;;;;;;;11.57;10.57;;;6.40;99.90;;;;;;10490920;28;20204;-76
2021/03/19 11:14:19;;;;;;;7.40;6.70;;;6.40;99.90;;;;;;10488407;28;20692;-75
2021/03/19 11:19:23;;;;;;;7.40;6.80;;;6.30;99.90;;;;;;10487818;28;20287;-75
2021/03/19 11:24:32;;;;;;;7.10;6.50;;;6.40;99.90;;;;;;10478075;28;20225;-76
2021/03/19 11:29:37;;;;;;;6.00;5.50;;;6.50;99.70;;;;;;10481334;28;20257;-76
2021/03/19 11:34:43;;;;;;;6.90;6.33;;;6.60;98.80;;;;;;10486773;28;20608;-76
2021/03/19 11:39:55;;;;;;;6.30;5.77;;;6.50;98.80;;;;;;10486639;28;20676;-75
2021/03/19 11:45:02;;;;;;;6.53;6.03;;;6.50;98.90;;;;;;10486097;28;20197;-76
2021/03/19 11:50:27;;;;;;;7.07;6.47;;;6.60;98.40;;;;;;10485323;28;20261;-76
2021/03/19 11:55:32;;;;;;;7.80;7.10;;;6.70;98.00;;;;;;10498910;28;20543;-77
2021/03/19 12:00:36;;;;;;;7.30;6.63;;;6.70;95.90;;;;;;10521180;28;20221;-76
2021/03/19 12:05:39;;;;;;;7.37;6.77;;;6.70;97.10;;;;;;10503338;28;20196;-78
2021/03/19 12:10:41;;;;;;;8.30;7.50;;;6.70;97.40;;;;;;10506283;28;20566;-78
2021/03/19 12:15:43;;;;;;;9.00;8.10;;;6.70;97.30;;;;;;10500179;28;21127;-78
2021/03/19 12:20:46;;;;;;;9.40;8.50;;;6.70;96.70;;;;;;10511643;28;20730;-78
2021/03/19 12:25:48;;;;;;;9.37;8.57;;;6.70;95.70;;;;;;10510133;28;20279;-78
2021/03/19 12:30:51;;;;;;;9.80;8.90;;;6.70;96.40;;;;;;10517988;28;20216;-78
2021/03/19 12:35:54;;;;;;;10.43;9.33;;;6.70;95.40;;;;;;10514865;28;20216;-77
2021/03/19 12:40:57;;;;;;;11.80;10.60;;;6.70;96.00;;;;;;10518306;28;20302;-78
2021/03/19 12:45:59;;;;;;;11.70;10.60;;;6.80;96.00;;;;;;10497499;28;20220;-78
2021/03/19 12:51:02;;;;;;;12.00;10.80;;;6.70;95.70;;;;;;10498590;28;20212;-78
2021/03/19 12:56:06;;;;;;;13.47;12.13;;;6.60;95.70;;;;;;10504608;28;20306;-79
2021/03/19 13:01:07;;;;;;;15.20;13.60;;;6.50;96.60;;;;;;10494295;28;20295;-79
2021/03/19 13:06:10;;;;;;;15.30;13.70;;;6.50;96.60;;;;;;10494915;28;20199;-79
2021/03/19 13:11:13;;;;;;;17.20;14.40;;;6.50;97.10;;;;;;10494419;28;20246;-78
2021/03/19 13:16:15;;;;;;;15.40;13.80;;;6.40;96.90;;;;;;10498540;28;20231;-78
2021/03/19 13:21:18;;;;;;;17.33;14.37;;;6.30;96.90;;;;;;10518501;28;20226;-79
2021/03/19 13:26:20;;;;;;;17.73;15.70;;;6.20;97.00;;;;;;10500512;28;20576;-79
2021/03/19 13:31:21;;;;;;;16.23;14.20;;;6.20;96.50;;;;;;10491247;28;20220;-78
2021/03/19 13:36:24;;;;;;;14.80;12.90;;;6.20;96.50;;;;;;10470375;28;20227;-79
2021/03/19 13:41:26;;;;;;;15.07;13.50;;;6.10;96.50;;;;;;10496118;28;20223;-78
2021/03/19 13:46:28;;;;;;;13.80;12.30;;;6.20;96.70;;;;;;10500717;28;20724;-79
2021/03/19 13:51:32;;;;;;;14.80;13.27;;;6.30;95.80;;;;;;10495907;28;20255;-79
2021/03/19 13:56:33;;;;;;;13.73;12.37;;;6.40;96.40;;;;;;10508617;28;20216;-79
2021/03/19 14:01:35;;;;;;;14.77;13.17;;;6.60;95.30;;;;;;10501249;28;20715;-79
2021/03/19 14:06:39;;;;;;;14.70;13.20;;;6.70;95.10;;;;;;10502869;28;20188;-79
2021/03/19 14:11:41;;;;;;;14.10;12.70;;;6.80;93.40;;;;;;10504916;28;20216;-79
2021/03/19 14:16:43;;;;;;;15.13;13.60;;;6.80;93.00;;;;;;10506343;28;20219;-79
2021/03/19 14:21:45;;;;;;;14.20;12.80;;;6.90;94.20;;;;;;10505875;28;20224;-79
2021/03/19 14:26:52;;;;;;;15.00;12.80;;;7.10;93.60;;;;;;10478010;28;20196;-79
2021/03/19 14:31:54;;;;;;;13.70;11.50;;;7.40;93.30;;;;;;10503630;28;20250;-79
2021/03/19 14:37:00;;;;;;;10.20;9.13;;;7.30;91.70;;;;;;10505286;28;20251;-78
2021/03/19 14:42:02;;;;;;;9.10;8.20;;;7.20;93.30;;;;;;10504283;28;20216;-79
2021/03/19 14:47:04;;;;;;;9.20;8.30;;;7.10;94.00;;;;;;10488580;28;20211;-79
2021/03/19 14:52:07;;;;;;;9.47;8.57;;;7.00;94.70;;;;;;10505041;28;20287;-79
2021/03/19 14:57:09;;;;;;;9.60;8.70;;;6.90;94.20;;;;;;10499333;28;20245;-80
2021/03/19 15:02:14;;;;;;;8.53;7.73;;;6.80;94.80;;;;;;10519086;28;20510;-78
2021/03/19 15:07:17;;;;;;;11.37;8.97;;;6.70;94.90;;;;;;10496350;28;20216;-78
2021/03/19 15:12:18;;;;;;;9.47;8.37;;;6.50;95.50;;;;;;10510226;28;20246;-78
2021/03/19 15:17:20;;;;;;;8.70;7.90;;;6.40;95.90;;;;;;10492127;28;20216;-77
2021/03/19 15:22:23;;;;;;;9.27;8.43;;;6.40;95.50;;;;;;10509875;28;20669;-78
2021/03/19 15:27:24;;;;;;;9.57;8.60;;;6.40;94.60;;;;;;10517385;28;20192;-78
2021/03/19 15:32:26;;;;;;;10.43;9.40;;;6.30;95.80;;;;;;10489741;28;20307;-77
2021/03/19 15:37:29;;;;;;;9.60;8.80;;;6.30;96.50;;;;;;10487101;28;20215;-77
2021/03/19 15:42:30;;;;;;;10.10;9.10;;;6.40;97.00;;;;;;10510907;28;20224;-77
2021/03/19 15:47:32;;;;;;;10.13;9.13;;;6.50;97.20;;;;;;10514296;28;20204;-77
2021/03/19 15:52:34;;;;;;;9.93;8.93;;;6.50;97.40;;;;;;10509566;28;20219;-77
2021/03/19 15:57:36;;;;;;;11.07;9.97;;;6.50;97.10;;;;;;10487422;28;20196;-77
2021/03/19 16:02:38;;;;;;;10.80;9.80;;;6.50;96.90;;;;;;10467466;28;20720;-77
2021/03/19 16:07:41;;;;;;;10.00;9.03;;;6.40;96.50;;;;;;10466530;28;20216;-77
2021/03/19 16:12:42;;;;;;;9.73;8.77;;;6.30;96.60;;;;;;10503173;28;20304;-77
2021/03/19 16:17:44;;;;;;;9.90;8.90;;;6.30;96.70;;;;;;10484259;28;20200;-77
2021/03/19 16:22:47;;;;;;;8.97;8.07;;;6.30;96.50;;;;;;10483146;28;20674;-77
2021/03/19 16:27:48;;;;;;;8.60;7.80;;;6.20;96.80;;;;;;10486324;28;20212;-77
2021/03/19 16:32:50;;;;;;;9.70;8.70;;;6.30;96.40;;;;;;10492679;28;20246;-77
2021/03/19 16:37:53;;;;;;;7.17;6.47;;;6.30;96.10;;;;;;10484712;28;20204;-77
2021/03/19 16:42:56;;;;;;;9.10;8.20;;;6.40;95.40;;;;;;10484199;28;20253;-77
2021/03/19 16:47:59;;;;;;;9.37;8.47;;;6.40;95.40;;;;;;10483981;28;20218;-77
2021/03/19 16:53:04;;;;;;;9.57;8.67;;;6.40;95.20;;;;;;10481979;28;20231;-77
2021/03/19 16:58:06;;;;;;;8.73;7.87;;;6.40;95.30;;;;;;10481780;28;20196;-77
2021/03/19 17:03:10;;;;;;;8.60;7.70;;;6.40;95.70;;;;;;10494780;28;20209;-77
2021/03/19 17:08:13;;;;;;;7.67;6.93;;;6.50;95.60;;;;;;10505157;28;20236;-77
2021/03/19 17:13:16;;;;;;;6.93;6.33;;;6.40;94.20;;;;;;10501368;28;20392;-77
2021/03/19 17:18:18;;;;;;;7.53;6.83;;;6.30;94.50;;;;;;10505870;28;20699;-77
2021/03/19 17:23:21;;;;;;;6.57;5.97;;;6.10;95.30;;;;;;10512199;28;20251;-77
2021/03/19 17:28:25;;;;;;;7.13;6.53;;;6.00;95.50;;;;;;10500575;28;20253;-77
2021/03/19 17:33:29;;;;;;;6.90;6.40;;;6.00;95.50;;;;;;10493126;28;20714;-77
2021/03/19 17:38:32;;;;;;;8.57;7.77;;;6.00;94.50;;;;;;10491532;28;20203;-77
2021/03/19 17:43:35;;;;;;;7.00;6.40;;;5.90;94.50;;;;;;10509325;28;20236;-77
2021/03/19 17:48:38;;;;;;;7.20;6.50;;;5.90;94.70;;;;;;10501514;28;20563;-77
2021/03/19 17:53:43;;;;;;;7.37;6.67;;;5.90;94.40;;;;;;10500166;28;20214;-77
2021/03/19 17:58:44;;;;;;;9.53;7.90;;;5.90;93.20;;;;;;10502405;28;20750;-77
2021/03/19 18:03:46;;;;;;;8.20;7.10;;;5.80;93.70;;;;;;10476411;28;20563;-77
2021/03/19 18:08:49;;;;;;;8.33;7.53;;;5.80;93.40;;;;;;10510691;28;20203;-77
2021/03/19 18:13:50;;;;;;;8.00;7.20;;;5.70;93.10;;;;;;10481588;28;20695;-77
2021/03/19 18:18:52;;;;;;;7.73;6.70;;;5.60;93.40;;;;;;10504050;28;20192;-77
2021/03/19 18:23:56;;;;;;;7.43;6.60;;;5.50;93.60;;;;;;10501787;28;20220;-77
2021/03/19 18:29:01;;;;;;;7.60;7.00;;;5.50;92.90;;;;;;10506820;28;20672;-77
2021/03/19 18:34:02;;;;;;;9.13;7.00;;;5.40;93.50;;;;;;10505642;28;20240;-77
2021/03/19 18:39:05;;;;;;;7.47;6.87;;;5.30;93.00;;;;;;10502814;28;20291;-78
2021/03/19 18:44:07;;;;;;;7.87;6.60;;;5.20;93.00;;;;;;10501461;28;20213;-77
2021/03/19 18:49:09;;;;;;;8.13;7.33;;;5.10;92.80;;;;;;10513217;28;20196;-77
2021/03/19 18:54:11;;;;;;;7.53;6.83;;;5.00;92.30;;;;;;10498109;28;20220;-78
2021/03/19 18:59:13;;;;;;;11.27;9.63;;;4.90;92.60;;;;;;10483068;28;20231;-77
2021/03/19 19:04:15;;;;;;;10.13;9.17;;;4.70;92.50;;;;;;10509096;28;20219;-77
2021/03/19 19:09:18;;;;;;;10.67;9.67;;;4.60;93.10;;;;;;10505608;28;20568;-77
2021/03/19 19:14:20;;;;;;;10.47;9.47;;;4.40;93.10;;;;;;10484433;28;20216;-78
2021/03/19 19:19:22;;;;;;;12.47;11.17;;;4.30;93.80;;;;;;10498033;28;20614;-78
2021/03/19 19:24:24;;;;;;;12.20;10.80;;;4.20;93.80;;;;;;10497018;28;20221;-77
2021/03/19 19:29:26;;;;;;;12.03;10.90;;;4.00;93.50;;;;;;10499011;28;20231;-77
2021/03/19 19:34:28;;;;;;;16.07;14.47;;;3.90;94.20;;;;;;10520700;28;20220;-77
2021/03/19 19:39:31;;;;;;;15.73;13.07;;;3.80;93.90;;;;;;10517904;28;20201;-77
2021/03/19 19:44:32;;;;;;;16.93;15.33;;;3.70;94.30;;;;;;10497427;28;20216;-77
2021/03/19 19:49:34;;;;;;;14.17;12.57;;;3.70;93.90;;;;;;10495119;28;20637;-77
2021/03/19 19:54:37;;;;;;;14.90;13.30;;;3.60;94.20;;;;;;10470203;28;20266;-77
2021/03/19 19:59:39;;;;;;;12.47;11.23;;;3.50;94.30;;;;;;10497775;28;20211;-77
2021/03/19 20:04:43;;;;;;;16.20;14.60;;;3.40;94.30;;;;;;10496859;28;20651;-78
2021/03/19 20:09:46;;;;;;;12.83;11.47;;;3.40;94.40;;;;;;10495111;28;20668;-78
2021/03/19 20:14:47;;;;;;;17.13;15.33;;;3.40;94.40;;;;;;10496680;28;20247;-77
2021/03/19 20:19:49;;;;;;;17.13;14.03;;;3.30;94.50;;;;;;10477229;28;20196;-78
2021/03/19 20:24:53;;;;;;;15.70;13.57;;;3.30;94.80;;;;;;10571622;22;20364;-80
2021/03/19 20:29:55;;;;;;;13.77;12.37;;;3.30;94.40;;;;;;10548571;28;20192;-79
2021/03/19 20:34:57;;;;;;;14.33;12.83;;;3.20;94.30;;;;;;10543957;28;20228;-80
2021/03/19 20:39:59;;;;;;;21.00;18.23;;;3.20;94.50;;;;;;10538944;28;20203;-79
2021/03/19 20:45:01;;;;;;;13.43;11.93;;;3.20;94.40;;;;;;10521328;28;20615;-81
2021/03/19 20:50:11;;;;;;;12.80;10.63;;;3.10;94.50;;;;;;10539941;28;20211;-81
2021/03/19 20:55:17;;;;;;;12.40;11.00;;;3.10;94.60;;;;;;10539479;28;20215;-79
2021/03/19 21:00:32;;;;;;;14.20;12.47;;;3.00;94.60;;;;;;10534789;28;20200;-79
2021/03/19 21:05:34;;;;;;;11.30;9.93;;;3.10;94.60;;;;;;10541464;28;20232;-80
2021/03/19 21:10:38;;;;;;;14.73;11.30;;;3.00;94.60;;;;;;10539090;28;20203;-78
2021/03/19 21:15:40;;;;;;;11.50;10.33;;;3.10;94.60;;;;;;10529170;28;20219;-78
2021/03/19 21:20:42;;;;;;;18.00;12.63;;;3.10;94.40;;;;;;10518600;28;20195;-80
2021/03/19 21:25:44;;;;;;;17.50;14.13;;;3.10;94.40;;;;;;10523678;28;20192;-80
2021/03/19 21:30:46;;;;;;;22.40;16.63;;;3.10;94.40;;;;;;10506936;28;20204;-78
2021/03/19 21:35:48;;;;;;;16.97;13.70;;;3.10;94.30;;;;;;10508161;28;20779;-79
2021/03/19 21:40:50;;;;;;;15.47;13.03;;;3.10;94.10;;;;;;10526153;28;20641;-79
2021/03/19 21:45:52;;;;;;;13.87;12.20;;;3.10;94.10;;;;;;10503248;28;20291;-79
2021/03/19 21:50:54;;;;;;;14.07;12.60;;;3.00;94.10;;;;;;10527920;28;20228;-78
2021/03/19 21:55:58;;;;;;;14.93;12.70;;;3.00;94.10;;;;;;10522917;28;20220;-79
2021/03/19 22:01:00;;;;;;;13.80;10.90;;;2.90;94.10;;;;;;10526363;28;20228;-80
2021/03/19 22:06:02;;;;;;;13.13;11.80;;;2.90;93.90;;;;;;10531936;28;20280;-79
2021/03/19 22:11:07;;;;;;;10.70;9.70;;;2.90;93.90;;;;;;10545239;28;20230;-79
2021/03/19 22:16:09;;;;;;;15.00;11.60;;;2.80;94.00;;;;;;10513835;28;20227;-79
2021/03/19 22:21:14;;;;;;;14.93;13.37;;;2.80;94.20;;;;;;10523669;28;20314;-80
2021/03/19 22:26:16;;;;;;;10.30;9.20;;;2.80;93.70;;;;;;10524208;28;20749;-79
2021/03/19 22:31:18;;;;;;;11.90;9.77;;;2.70;93.50;;;;;;10527884;28;20296;-79
2021/03/19 22:36:22;;;;;;;11.10;10.00;;;2.70;94.10;;;;;;10520246;28;20570;-79
2021/03/19 22:41:25;;;;;;;9.40;8.40;;;2.70;94.00;;;;;;10515981;28;20224;-79
2021/03/19 22:46:26;;;;;;;11.10;9.67;;;2.60;93.60;;;;;;10511957;28;20207;-79
2021/03/19 22:51:28;;;;;;;9.50;8.60;;;2.60;93.80;;;;;;10514518;28;20311;-78
2021/03/19 22:56:31;;;;;;;9.80;8.90;;;2.50;93.60;;;;;;10532119;28;20697;-79
2021/03/19 23:01:34;;;;;;;9.77;8.87;;;2.50;94.00;;;;;;10518897;28;20224;-79
2021/03/19 23:06:36;;;;;;;9.90;8.97;;;2.50;94.10;;;;;;10522392;28;20709;-78
2021/03/19 23:11:39;;;;;;;10.97;9.73;;;2.40;94.10;;;;;;10522489;28;20258;-79
2021/03/19 23:16:42;;;;;;;9.27;8.47;;;2.40;93.90;;;;;;10516731;28;20759;-79
2021/03/19 23:21:46;;;;;;;9.70;8.80;;;2.40;93.80;;;;;;10523499;28;20235;-78
2021/03/19 23:26:48;;;;;;;8.27;7.47;;;2.30;93.90;;;;;;10532260;28;20219;-79
2021/03/19 23:31:50;;;;;;;8.60;7.80;;;2.40;93.70;;;;;;10522065;28;20219;-78
2021/03/19 23:36:52;;;;;;;8.63;7.73;;;2.30;94.20;;;;;;10518094;28;20220;-79
2021/03/19 23:41:54;;;;;;;7.77;6.93;;;2.30;93.80;;;;;;10518734;28;20219;-79
2021/03/19 23:46:56;;;;;;;9.67;8.17;;;2.30;93.90;;;;;;10519476;28;20330;-79
2021/03/19 23:51:58;;;;;;;7.83;7.13;;;2.30;94.20;;;;;;10513566;28;20241;-79
2021/03/19 23:57:01;;;;;;;9.23;8.33;;;2.30;93.70;;;;;;10534929;28;20667;-79
